createdAt,value
2019-03-05T00:00:47.514Z,7.50
2019-03-05T00:03:17.816Z,7.40
2019-03-05T00:05:47.720Z,7.40
2019-03-05T00:08:18.073Z,7.40
2019-03-05T00:10:47.343Z,7.50
2019-03-05T00:13:16.612Z,7.50
2019-03-05T00:15:47.093Z,7.50
2019-03-05T00:18:16.356Z,7.50
2019-03-05T00:20:45.688Z,7.50
2019-03-05T00:23:18.048Z,7.50
2019-03-05T00:25:47.308Z,7.50
2019-03-05T00:28:22.333Z,7.50
2019-03-05T00:31:05.949Z,7.50
2019-03-05T00:33:56.037Z,7.50
2019-03-05T00:36:37.750Z,7.50
2019-03-05T00:39:29.796Z,7.50
2019-03-05T00:42:10.636Z,7.50
2019-03-05T00:44:48.965Z,7.50
2019-03-05T00:47:30.425Z,7.50
2019-03-05T00:50:20.892Z,7.50
2019-03-05T00:53:02.109Z,7.50
2019-03-05T00:55:40.248Z,7.60
2019-03-05T00:58:18.555Z,7.50
2019-03-05T01:01:05.868Z,7.60
2019-03-05T01:03:49.501Z,7.60
2019-03-05T01:06:21.895Z,7.60
2019-03-05T01:08:51.895Z,7.60
2019-03-05T01:11:22.370Z,7.60
2019-03-05T01:13:51.709Z,7.60
2019-03-05T01:16:22.876Z,7.60
2019-03-05T01:18:52.148Z,7.50
2019-03-05T01:21:21.407Z,7.50
2019-03-05T01:23:50.676Z,7.50
2019-03-05T01:26:20.165Z,7.50
2019-03-05T01:28:49.451Z,7.50
2019-03-05T01:31:37.573Z,7.40
2019-03-05T01:34:08.480Z,7.40
2019-03-05T01:36:51.238Z,7.30
2019-03-05T01:39:32.382Z,7.10
2019-03-05T01:42:01.635Z,7.00
2019-03-05T01:44:30.905Z,7.00
2019-03-05T01:47:00.177Z,6.90
2019-03-05T01:49:29.534Z,6.80
2019-03-05T01:51:58.815Z,6.70
2019-03-05T01:54:28.117Z,6.60
2019-03-05T01:56:57.380Z,6.50
2019-03-05T01:59:26.645Z,6.40
2019-03-05T02:01:55.907Z,6.30
2019-03-05T02:04:25.192Z,6.20
2019-03-05T02:06:54.439Z,6.20
2019-03-05T02:09:23.721Z,6.10
2019-03-05T02:11:52.987Z,6.10
2019-03-05T02:14:22.252Z,6.00
2019-03-05T02:16:51.516Z,6.00
2019-03-05T02:19:40.309Z,6.00
2019-03-05T02:22:15.737Z,6.00
2019-03-05T02:24:56.845Z,6.00
2019-03-05T02:27:35.201Z,5.90
2019-03-05T02:30:19.641Z,6.00
2019-03-05T02:33:03.829Z,5.90
2019-03-05T02:35:57.039Z,5.90
2019-03-05T02:38:34.965Z,5.90
2019-03-05T02:41:22.071Z,5.90
2019-03-05T02:44:18.617Z,5.90
2019-03-05T02:47:02.769Z,5.90
2019-03-05T02:49:56.485Z,5.90
2019-03-05T02:52:33.939Z,5.90
2019-03-05T02:55:14.788Z,5.90
2019-03-05T02:57:42.980Z,6.00
2019-03-05T03:00:13.894Z,6.00
2019-03-05T03:02:44.803Z,6.00
2019-03-05T03:05:20.630Z,6.10
2019-03-05T03:07:49.911Z,6.10
2019-03-05T03:10:21.022Z,6.20
2019-03-05T03:12:50.387Z,6.20
2019-03-05T03:15:19.931Z,6.20
2019-03-05T03:17:49.556Z,6.20
2019-03-05T03:20:19.058Z,6.20
2019-03-05T03:22:48.329Z,6.30
2019-03-05T03:25:18.123Z,6.30
2019-03-05T03:27:47.472Z,6.30
2019-03-05T03:30:18.706Z,6.30
2019-03-05T03:32:48.029Z,6.30
2019-03-05T03:35:17.462Z,6.30
2019-03-05T03:37:46.740Z,6.30
2019-03-05T03:40:17.945Z,6.30
2019-03-05T03:42:47.239Z,6.30
2019-03-05T03:45:18.439Z,6.40
2019-03-05T03:47:47.700Z,6.40
2019-03-05T03:50:16.979Z,6.40
2019-03-05T03:52:46.263Z,6.40
2019-03-05T03:55:16.632Z,6.50
2019-03-05T03:57:45.882Z,6.50
2019-03-05T04:00:20.325Z,6.50
2019-03-05T04:02:49.931Z,6.30
2019-03-05T04:05:19.264Z,6.20
2019-03-05T04:07:48.525Z,6.00
2019-03-05T04:10:18.039Z,5.90
2019-03-05T04:12:47.298Z,5.90
2019-03-05T04:15:18.405Z,5.80
2019-03-05T04:17:47.671Z,5.80
2019-03-05T04:20:28.319Z,5.80
2019-03-05T04:22:57.600Z,5.70
2019-03-05T04:25:26.869Z,5.70
2019-03-05T04:27:56.137Z,5.70
2019-03-05T04:30:25.399Z,5.70
2019-03-05T04:32:54.662Z,5.70
2019-03-05T04:35:23.928Z,5.70
2019-03-05T04:37:53.196Z,5.70
2019-03-05T04:40:22.452Z,5.70
2019-03-05T04:42:51.717Z,5.70
2019-03-05T04:45:37.228Z,5.70
2019-03-05T04:48:06.485Z,5.70
2019-03-05T04:50:37.401Z,5.70
2019-03-05T04:53:06.652Z,5.70
2019-03-05T04:55:35.935Z,5.70
2019-03-05T04:58:05.202Z,5.70
2019-03-05T05:00:34.469Z,5.80
2019-03-05T05:03:04.006Z,5.80
2019-03-05T05:05:33.284Z,5.80
2019-03-05T05:08:02.544Z,5.90
2019-03-05T05:10:31.827Z,5.90
2019-03-05T05:13:01.095Z,6.00
2019-03-05T05:15:32.001Z,6.00
2019-03-05T05:18:01.696Z,6.00
2019-03-05T05:20:31.150Z,6.00
2019-03-05T05:23:00.401Z,6.00
2019-03-05T05:25:29.666Z,6.10
2019-03-05T05:27:58.990Z,6.10
2019-03-05T05:30:35.366Z,6.10
2019-03-05T05:33:05.876Z,6.10
2019-03-05T05:35:35.281Z,6.00
2019-03-05T05:38:04.681Z,6.00
2019-03-05T05:40:45.247Z,6.00
2019-03-05T05:43:17.208Z,6.00
2019-03-05T05:45:50.846Z,5.90
2019-03-05T05:48:20.180Z,5.90
2019-03-05T05:50:49.449Z,5.80
2019-03-05T05:53:18.740Z,5.80
2019-03-05T05:55:48.021Z,5.80
2019-03-05T05:58:18.109Z,5.80
2019-03-05T06:00:51.436Z,5.70
2019-03-05T06:03:20.779Z,5.70
2019-03-05T06:05:50.095Z,5.70
2019-03-05T06:08:20.432Z,5.70
2019-03-05T06:10:52.449Z,5.70
2019-03-05T06:13:20.678Z,5.70
2019-03-05T06:15:49.956Z,5.70
2019-03-05T06:18:19.229Z,5.70
2019-03-05T06:20:48.497Z,5.70
2019-03-05T06:23:17.763Z,5.70
2019-03-05T06:25:47.028Z,5.70
2019-03-05T06:28:16.298Z,5.60
2019-03-05T06:30:45.571Z,5.60
2019-03-05T06:33:14.836Z,5.60
2019-03-05T06:35:44.095Z,5.60
2019-03-05T06:38:13.357Z,5.60
2019-03-05T06:40:42.613Z,5.60
2019-03-05T06:43:11.890Z,5.50
2019-03-05T06:45:41.152Z,5.50
2019-03-05T06:48:10.421Z,5.40
2019-03-05T06:50:39.690Z,5.40
2019-03-05T06:53:08.956Z,5.40
2019-03-05T06:55:38.220Z,5.30
2019-03-05T06:58:07.484Z,5.30
2019-03-05T07:00:40.556Z,5.30
2019-03-05T07:03:10.792Z,5.20
2019-03-05T07:06:16.444Z,5.20
2019-03-05T07:08:51.168Z,5.10
2019-03-05T07:11:41.556Z,5.10
2019-03-05T07:14:28.782Z,5.00
2019-03-05T07:17:01.130Z,5.00
2019-03-05T07:19:36.511Z,5.00
2019-03-05T07:22:12.934Z,5.00
2019-03-05T07:24:46.092Z,5.00
2019-03-05T07:27:24.353Z,5.00
2019-03-05T07:29:55.268Z,5.00
2019-03-05T07:32:24.530Z,5.00
2019-03-05T07:34:53.801Z,5.00
2019-03-05T07:37:23.063Z,5.00
2019-03-05T07:39:53.377Z,5.00
2019-03-05T07:42:22.632Z,5.00
2019-03-05T07:44:51.914Z,5.00
2019-03-05T07:47:21.175Z,5.10
2019-03-05T07:49:50.450Z,5.10
2019-03-05T07:52:19.712Z,5.10
2019-03-05T07:54:48.976Z,5.00
2019-03-05T07:57:18.252Z,5.00
2019-03-05T07:59:47.516Z,5.00
2019-03-05T08:02:16.788Z,5.00
2019-03-05T08:04:46.065Z,5.00
2019-03-05T08:07:15.325Z,5.00
2019-03-05T08:09:44.589Z,5.00
2019-03-05T08:12:16.922Z,5.00
2019-03-05T08:14:55.247Z,5.00
2019-03-05T08:17:25.494Z,5.00
2019-03-05T08:19:54.768Z,5.10
2019-03-05T08:22:24.025Z,5.10
2019-03-05T08:24:53.300Z,5.10
2019-03-05T08:27:22.566Z,5.10
2019-03-05T08:29:51.842Z,5.10
2019-03-05T08:32:21.105Z,5.10
2019-03-05T08:34:50.364Z,5.10
2019-03-05T08:37:19.635Z,5.10
2019-03-05T08:39:48.902Z,5.10
2019-03-05T08:42:18.170Z,5.20
2019-03-05T08:44:50.610Z,5.20
2019-03-05T08:47:18.391Z,5.30
2019-03-05T08:49:47.647Z,5.30
2019-03-05T08:52:16.929Z,5.30
2019-03-05T08:54:46.188Z,5.30
2019-03-05T08:57:15.449Z,5.30
2019-03-05T08:59:44.789Z,5.30
2019-03-05T09:02:14.062Z,5.40
2019-03-05T09:04:43.324Z,5.40
2019-03-05T09:07:12.906Z,5.40
2019-03-05T09:09:42.165Z,5.50
2019-03-05T09:12:11.604Z,5.50
2019-03-05T09:14:40.856Z,5.50
2019-03-05T09:17:10.200Z,5.60
2019-03-05T09:19:39.470Z,5.60
2019-03-05T09:22:08.736Z,5.70
2019-03-05T09:24:38.031Z,5.80
2019-03-05T09:27:07.307Z,5.90
2019-03-05T09:29:36.570Z,6.00
2019-03-05T09:32:05.905Z,6.10
2019-03-05T09:34:35.168Z,6.10
2019-03-05T09:37:05.544Z,6.20
2019-03-05T09:39:34.811Z,6.30
2019-03-05T09:42:04.154Z,6.30
2019-03-05T09:44:33.419Z,6.30
2019-03-05T09:47:02.715Z,6.40
2019-03-05T09:49:31.953Z,6.40
2019-03-05T09:52:01.223Z,6.50
2019-03-05T09:54:30.488Z,6.50
2019-03-05T09:57:01.221Z,6.60
2019-03-05T09:59:30.485Z,6.60
2019-03-05T10:01:59.768Z,6.60
2019-03-05T10:04:29.086Z,6.70
2019-03-05T10:06:58.359Z,6.80
2019-03-05T10:09:27.617Z,6.80
2019-03-05T10:11:57.077Z,6.80
2019-03-05T10:14:26.433Z,6.90
2019-03-05T10:16:55.689Z,6.90
2019-03-05T10:19:24.960Z,7.00
2019-03-05T10:21:54.222Z,7.00
2019-03-05T10:24:23.484Z,7.00
2019-03-05T10:26:52.740Z,7.10
2019-03-05T10:29:22.015Z,7.10
2019-03-05T10:31:51.268Z,7.10
2019-03-05T10:34:20.604Z,7.20
2019-03-05T10:36:49.869Z,7.20
2019-03-05T10:39:30.042Z,7.20
2019-03-05T10:41:53.017Z,7.20
2019-03-05T10:44:22.287Z,7.20
2019-03-05T10:46:51.817Z,7.20
2019-03-05T10:49:21.460Z,7.20
2019-03-05T10:51:50.716Z,7.20
2019-03-05T10:54:20.049Z,7.30
2019-03-05T10:56:49.315Z,7.40
2019-03-05T10:59:18.579Z,7.50
2019-03-05T11:01:48.204Z,7.50
2019-03-05T11:04:17.472Z,7.50
2019-03-05T11:06:46.746Z,7.60
2019-03-05T11:09:18.757Z,7.60
2019-03-05T11:11:48.031Z,7.70
2019-03-05T11:14:17.368Z,7.70
2019-03-05T11:16:49.885Z,7.80
2019-03-05T11:19:18.593Z,7.70
2019-03-05T11:21:47.848Z,7.70
2019-03-05T11:24:17.194Z,7.70
2019-03-05T11:26:46.452Z,7.70
2019-03-05T11:29:15.716Z,7.80
2019-03-05T11:31:44.988Z,7.90
2019-03-05T11:34:14.261Z,8.10
2019-03-05T11:36:43.521Z,8.20
2019-03-05T11:39:13.149Z,8.30
2019-03-05T11:41:42.400Z,8.30
2019-03-05T11:44:11.804Z,8.30
2019-03-05T11:46:41.077Z,8.30
2019-03-05T11:49:10.337Z,8.30
2019-03-05T11:51:39.601Z,8.30
2019-03-05T11:54:08.876Z,8.40
2019-03-05T11:56:38.134Z,8.50
2019-03-05T11:59:07.416Z,8.60
2019-03-05T12:01:36.740Z,8.70
2019-03-05T12:04:06.341Z,8.80
2019-03-05T12:06:35.607Z,8.90
2019-03-05T12:09:06.931Z,8.90
2019-03-05T12:11:36.364Z,8.90
2019-03-05T12:14:05.629Z,8.80
2019-03-05T12:16:34.904Z,8.80
2019-03-05T12:19:04.164Z,8.80
2019-03-05T12:21:33.435Z,8.80
2019-03-05T12:24:02.701Z,8.80
2019-03-05T12:26:32.944Z,8.80
2019-03-05T12:29:02.204Z,8.80
2019-03-05T12:31:31.481Z,8.80
2019-03-05T12:34:00.749Z,8.80
2019-03-05T12:36:30.024Z,8.90
2019-03-05T12:38:59.304Z,8.90
2019-03-05T12:41:28.757Z,9.00
2019-03-05T12:43:58.017Z,9.00
2019-03-05T12:46:28.904Z,8.90
2019-03-05T12:48:58.164Z,8.80
2019-03-05T12:51:27.435Z,8.80
2019-03-05T12:53:56.698Z,8.60
2019-03-05T12:56:25.975Z,8.40
2019-03-05T12:58:55.237Z,8.00
2019-03-05T13:01:24.510Z,7.50
2019-03-05T13:03:53.812Z,7.00
2019-03-05T13:06:23.111Z,6.80
2019-03-05T13:08:52.369Z,6.60
2019-03-05T13:11:21.645Z,6.50
2019-03-05T13:13:52.773Z,6.40
2019-03-05T13:16:21.897Z,6.40
2019-03-05T13:18:51.156Z,6.40
2019-03-05T13:21:20.424Z,6.40
2019-03-05T13:23:51.583Z,6.60
2019-03-05T13:26:20.660Z,7.60
2019-03-05T13:28:49.931Z,8.80
2019-03-05T13:31:19.200Z,9.60
2019-03-05T13:33:48.465Z,10.60
2019-03-05T13:36:17.745Z,11.50
2019-03-05T13:38:47.014Z,12.20
2019-03-05T13:41:16.850Z,12.50
2019-03-05T13:43:46.327Z,12.80
2019-03-05T13:46:15.677Z,13.10
2019-03-05T13:48:59.765Z,13.60
2019-03-05T13:51:50.088Z,14.00
2019-03-05T13:54:37.214Z,13.80
2019-03-05T13:57:21.214Z,13.00
2019-03-05T13:59:50.460Z,12.10
2019-03-05T14:02:22.951Z,11.30
2019-03-05T14:05:06.712Z,10.80
2019-03-05T14:08:04.934Z,10.30
2019-03-05T14:10:34.203Z,9.90
2019-03-05T14:13:03.664Z,9.60
2019-03-05T14:15:34.117Z,9.40
2019-03-05T14:18:03.482Z,10.00
2019-03-05T14:20:34.987Z,10.40
2019-03-05T14:23:03.738Z,10.70
2019-03-05T14:25:33.042Z,11.50
2019-03-05T14:28:02.368Z,12.30
2019-03-05T14:30:31.701Z,13.20
2019-03-05T14:33:01.009Z,14.10
2019-03-05T14:35:30.467Z,14.80
2019-03-05T14:37:59.796Z,14.90
2019-03-05T14:40:30.053Z,14.80
2019-03-05T14:42:59.627Z,14.90
2019-03-05T14:45:30.732Z,15.00
2019-03-05T14:48:00.339Z,14.90
2019-03-05T14:50:29.658Z,15.00
2019-03-05T14:52:58.941Z,15.40
2019-03-05T14:55:28.267Z,15.90
2019-03-05T14:57:57.564Z,16.30
2019-03-05T15:00:26.823Z,16.60
2019-03-05T15:02:56.088Z,16.90
2019-03-05T15:05:26.442Z,17.20
2019-03-05T15:07:55.684Z,17.60
2019-03-05T15:10:25.074Z,17.20
2019-03-05T15:12:54.489Z,16.10
2019-03-05T15:15:31.484Z,15.30
2019-03-05T15:18:00.797Z,14.90
2019-03-05T15:20:31.192Z,14.50
2019-03-05T15:23:00.477Z,14.50
2019-03-05T15:25:29.853Z,14.50
2019-03-05T15:27:59.198Z,14.40
2019-03-05T15:30:29.082Z,14.30
2019-03-05T15:32:58.702Z,14.30
2019-03-05T15:35:29.112Z,14.20
2019-03-05T15:37:58.344Z,14.10
2019-03-05T15:40:27.694Z,13.90
2019-03-05T15:42:56.985Z,13.60
2019-03-05T15:45:26.281Z,13.40
2019-03-05T15:47:55.587Z,13.20
2019-03-05T15:50:26.618Z,12.90
2019-03-05T15:52:56.018Z,12.70
2019-03-05T15:55:25.934Z,12.40
2019-03-05T15:57:55.204Z,12.20
2019-03-05T16:00:30.552Z,12.00
2019-03-05T16:03:01.262Z,11.90
2019-03-05T16:05:31.898Z,11.70
2019-03-05T16:08:01.547Z,11.60
2019-03-05T16:10:31.996Z,11.50
2019-03-05T16:13:01.356Z,11.30
2019-03-05T16:15:30.806Z,11.20
2019-03-05T16:18:01.299Z,11.00
2019-03-05T16:20:31.104Z,10.90
2019-03-05T16:23:00.382Z,10.80
2019-03-05T16:25:29.649Z,10.80
2019-03-05T16:28:02.358Z,10.70
2019-03-05T16:30:39.009Z,10.50
2019-03-05T16:33:16.144Z,10.50
2019-03-05T16:35:47.056Z,10.40
2019-03-05T16:38:24.484Z,10.30
2019-03-05T16:40:55.416Z,10.20
2019-03-05T16:43:26.322Z,10.10
2019-03-05T16:46:00.226Z,10.00
2019-03-05T16:48:31.136Z,10.00
2019-03-05T16:51:02.052Z,9.90
2019-03-05T16:53:38.656Z,9.80
2019-03-05T16:56:12.533Z,9.80
2019-03-05T16:58:52.140Z,9.70
2019-03-05T17:01:25.760Z,9.60
2019-03-05T17:04:05.422Z,9.60
2019-03-05T17:06:52.628Z,9.50
2019-03-05T17:09:26.170Z,9.50
2019-03-05T17:11:55.203Z,9.40
2019-03-05T17:14:25.054Z,9.30
2019-03-05T17:16:54.512Z,9.20
2019-03-05T17:19:23.844Z,9.20
2019-03-05T17:21:53.267Z,9.10
2019-03-05T17:24:22.648Z,9.10
2019-03-05T17:26:51.919Z,9.00
2019-03-05T17:29:21.269Z,9.00
2019-03-05T17:31:52.226Z,8.90
2019-03-05T17:34:21.609Z,8.80
2019-03-05T17:36:50.964Z,8.80
2019-03-05T17:39:20.525Z,8.80
2019-03-05T17:41:49.960Z,8.70
2019-03-05T17:44:19.360Z,8.70
2019-03-05T17:46:48.951Z,8.60
2019-03-05T17:49:18.286Z,8.60
2019-03-05T17:51:47.565Z,8.60
2019-03-05T17:54:16.844Z,8.60
2019-03-05T17:56:47.085Z,8.50
2019-03-05T17:59:16.356Z,8.50
2019-03-05T18:01:45.699Z,8.40
2019-03-05T18:04:15.048Z,8.40
2019-03-05T18:06:44.317Z,8.30
2019-03-05T18:09:13.941Z,8.30
2019-03-05T18:11:44.833Z,8.20
2019-03-05T18:14:14.118Z,8.20
2019-03-05T18:16:43.441Z,8.20
2019-03-05T18:19:12.782Z,8.10
2019-03-05T18:21:42.326Z,8.10
2019-03-05T18:24:11.597Z,8.00
2019-03-05T18:26:40.940Z,8.00
2019-03-05T18:29:11.281Z,8.00
2019-03-05T18:31:40.550Z,7.90
2019-03-05T18:34:09.893Z,7.90
2019-03-05T18:36:39.152Z,7.90
2019-03-05T18:39:09.064Z,7.90
2019-03-05T18:41:39.212Z,7.90
2019-03-05T18:44:08.488Z,7.80
2019-03-05T18:46:37.756Z,7.80
2019-03-05T18:49:09.207Z,7.80
2019-03-05T18:51:38.253Z,7.80
2019-03-05T18:54:07.591Z,7.70
2019-03-05T18:56:37.145Z,7.70
2019-03-05T18:59:06.433Z,7.70
2019-03-05T19:01:35.700Z,7.70
2019-03-05T19:04:04.963Z,7.70
2019-03-05T19:06:34.222Z,7.70
2019-03-05T19:09:04.761Z,7.70
2019-03-05T19:11:35.696Z,7.70
2019-03-05T19:14:05.044Z,7.70
2019-03-05T19:16:34.380Z,7.70
2019-03-05T19:19:03.728Z,7.60
2019-03-05T19:21:33.965Z,7.70
2019-03-05T19:24:03.238Z,7.60
2019-03-05T19:26:32.545Z,7.60
2019-03-05T19:29:01.822Z,7.60
2019-03-05T19:31:31.153Z,7.60
2019-03-05T19:34:00.438Z,7.60
2019-03-05T19:36:29.720Z,7.60
2019-03-05T19:38:58.996Z,7.60
2019-03-05T19:41:30.400Z,7.50
2019-03-05T19:43:59.876Z,7.50
2019-03-05T19:46:29.308Z,7.50
2019-03-05T19:48:58.584Z,7.50
2019-03-05T19:51:27.860Z,7.50
2019-03-05T19:53:57.124Z,7.50
2019-03-05T19:56:26.406Z,7.40
2019-03-05T19:58:55.673Z,7.50
2019-03-05T20:01:26.586Z,7.40
2019-03-05T20:03:55.865Z,7.40
2019-03-05T20:06:25.200Z,7.40
2019-03-05T20:08:54.468Z,7.40
2019-03-05T20:11:23.781Z,7.30
2019-03-05T20:13:53.057Z,7.30
2019-03-05T20:16:22.328Z,7.30
2019-03-05T20:18:51.782Z,7.30
2019-03-05T20:21:21.064Z,7.20
2019-03-05T20:23:50.370Z,7.30
2019-03-05T20:26:19.640Z,7.30
2019-03-05T20:28:48.943Z,7.30
2019-03-05T20:31:18.665Z,7.30
2019-03-05T20:33:48.122Z,7.30
2019-03-05T20:36:17.488Z,7.30
2019-03-05T20:38:47.035Z,7.30
2019-03-05T20:41:16.527Z,7.30
2019-03-05T20:43:46.514Z,7.20
2019-03-05T20:46:18.738Z,7.20
2019-03-05T20:48:48.222Z,7.10
2019-03-05T20:51:19.136Z,7.10
2019-03-05T20:53:48.450Z,7.00
2019-03-05T20:56:17.727Z,7.00
2019-03-05T20:58:46.987Z,6.90
2019-03-05T21:01:17.563Z,6.90
2019-03-05T21:03:48.197Z,6.80
2019-03-05T21:06:17.607Z,6.80
2019-03-05T21:08:46.879Z,6.70
2019-03-05T21:11:16.224Z,6.70
2019-03-05T21:13:45.598Z,6.60
2019-03-05T21:16:14.878Z,6.60
2019-03-05T21:18:44.225Z,6.50
2019-03-05T21:21:13.569Z,6.50
2019-03-05T21:23:43.816Z,6.40
2019-03-05T21:26:13.172Z,6.40
2019-03-05T21:28:42.448Z,6.40
2019-03-05T21:31:11.932Z,6.40
2019-03-05T21:33:41.208Z,6.30
2019-03-05T21:36:11.624Z,6.30
2019-03-05T21:38:40.939Z,6.20
2019-03-05T21:41:11.357Z,6.20
2019-03-05T21:43:40.653Z,6.10
2019-03-05T21:46:13.156Z,6.00
2019-03-05T21:48:43.488Z,6.00
2019-03-05T21:51:12.771Z,5.90
2019-03-05T21:53:42.383Z,5.90
2019-03-05T21:56:11.647Z,5.90
2019-03-05T21:58:40.930Z,5.80
2019-03-05T22:01:11.266Z,5.80
2019-03-05T22:03:40.528Z,5.80
2019-03-05T22:06:09.803Z,5.80
2019-03-05T22:08:39.072Z,5.70
2019-03-05T22:11:08.332Z,5.70
2019-03-05T22:13:38.687Z,5.70
2019-03-05T22:16:07.955Z,5.70
2019-03-05T22:18:37.223Z,5.70
2019-03-05T22:21:06.497Z,5.70
2019-03-05T22:23:35.772Z,5.70
2019-03-05T22:26:06.184Z,5.70
2019-03-05T22:28:35.913Z,5.70
2019-03-05T22:31:05.165Z,5.70
2019-03-05T22:33:34.447Z,5.70
2019-03-05T22:36:03.872Z,5.70
2019-03-05T22:38:33.202Z,5.80
2019-03-05T22:41:02.906Z,5.80
2019-03-05T22:43:32.293Z,5.80
2019-03-05T22:46:01.567Z,5.80
2019-03-05T22:48:30.838Z,5.80
2019-03-05T22:51:00.099Z,5.90
2019-03-05T22:53:29.549Z,5.90
2019-03-05T22:55:58.802Z,5.90
2019-03-05T22:58:28.085Z,6.00
2019-03-05T23:01:01.524Z,6.00
2019-03-05T23:03:33.204Z,6.00
2019-03-05T23:06:08.460Z,6.10
2019-03-05T23:08:38.997Z,6.10
2019-03-05T23:11:08.424Z,6.10
2019-03-05T23:13:37.828Z,6.20
2019-03-05T23:16:07.320Z,6.20
2019-03-05T23:18:36.668Z,6.20
2019-03-05T23:21:06.399Z,6.30
2019-03-05T23:23:35.672Z,6.30
2019-03-05T23:26:05.340Z,6.30
2019-03-05T23:28:36.753Z,6.30
2019-03-05T23:31:07.856Z,6.40
2019-03-05T23:33:37.149Z,6.40
2019-03-05T23:36:06.476Z,6.40
2019-03-05T23:38:35.817Z,6.40
2019-03-05T23:41:05.094Z,6.40
2019-03-05T23:43:34.424Z,6.50
2019-03-05T23:46:04.132Z,6.50
2019-03-05T23:48:33.400Z,6.50
2019-03-05T23:51:02.665Z,6.50
2019-03-05T23:53:32.895Z,6.60
2019-03-05T23:56:02.188Z,6.60
2019-03-05T23:58:31.450Z,6.60
